Time;durP1;ratioP1;P1;durP2;ratioP2;P2;SDS_P1;SDS_P2;PMS_P1;PMS_P2;Temp;Humidity;BMP_temperature;BMP_pressure;BME280_temperature;BME280_humidity;BME280_pressure;Samples;Min_cycle;Max_cycle;Signal;HPM_P1;HPM_P2
2021/05/01 00:00:18;;;;;;;8.40;3.92;;;;;;;23.92;41.53;99082.56;4483030;32;33557;-60
2021/05/01 00:02:45;;;;;;;8.18;3.95;;;;;;;23.92;41.51;99071.69;4484193;32;33283;-60
2021/05/01 00:05:12;;;;;;;10.38;3.97;;;;;;;23.91;41.50;99075.44;4484347;32;33788;-59
2021/05/01 00:07:40;;;;;;;11.27;3.70;;;;;;;23.91;41.37;99078.19;4484524;32;34723;-61
2021/05/01 00:10:08;;;;;;;7.45;3.87;;;;;;;23.92;41.36;99070.81;4484228;32;34304;-60
2021/05/01 00:12:36;;;;;;;10.98;4.07;;;;;;;23.92;41.46;99068.09;4484349;32;33411;-60
2021/05/01 00:15:03;;;;;;;8.75;3.60;;;;;;;23.91;41.44;99063.72;4484046;32;33458;-60
2021/05/01 00:17:31;;;;;;;9.40;3.92;;;;;;;23.90;41.39;99052.00;4484340;32;33819;-61
2021/05/01 00:19:58;;;;;;;8.30;4.15;;;;;;;23.91;41.56;99069.19;4483243;32;33946;-57
2021/05/01 00:22:38;;;;;;;10.82;3.55;;;;;;;24.50;40.43;99055.13;4515176;31;148014;-57
2021/05/01 00:25:06;;;;;;;8.18;3.50;;;;;;;24.50;40.43;99055.13;4503792;31;34112;-57
2021/05/01 00:27:33;;;;;;;9.38;3.90;;;;;;;23.90;41.25;99045.75;4495951;31;33542;-60
2021/05/01 00:30:01;;;;;;;9.07;3.55;;;;;;;23.89;41.29;99058.53;4509381;31;34748;-55
2021/05/01 00:32:33;;;;;;;8.00;3.70;;;;;;;23.90;41.49;99054.72;4510585;31;33706;-57
2021/05/01 00:35:08;;;;;;;10.30;3.90;;;;;;;23.90;41.37;99059.38;4511683;31;33419;-58
2021/05/01 00:37:36;;;;;;;6.85;3.25;;;;;;;23.88;41.38;99059.62;4511767;31;34407;-56
2021/05/01 00:40:07;;;;;;;8.35;3.22;;;;;;;23.89;41.40;99057.72;4511661;31;33604;-56
2021/05/01 00:42:34;;;;;;;7.87;3.80;;;;;;;23.88;41.27;99051.44;4479962;32;34575;-56
2021/05/01 00:45:03;;;;;;;8.45;3.70;;;;;;;23.88;41.37;99054.16;4478592;32;33360;-58
2021/05/01 00:47:30;;;;;;;6.22;3.37;;;;;;;23.88;41.45;99061.53;4490831;31;33914;-58
2021/05/01 00:49:57;;;;;;;9.70;3.67;;;;;;;23.88;41.49;99059.62;4495568;31;35131;-57
2021/05/01 00:52:25;;;;;;;9.10;3.25;;;;;;;23.88;41.36;99050.63;4495688;31;34273;-56
2021/05/01 00:54:52;;;;;;;8.70;3.70;;;;;;;23.87;41.45;99054.41;4496002;31;33159;-58
2021/05/01 00:57:19;;;;;;;9.05;3.90;;;;;;;23.87;41.50;99051.66;4495649;31;33872;-58
2021/05/01 00:59:47;;;;;;;7.85;3.75;;;;;;;23.87;41.53;99044.31;4494472;32;33568;-57
2021/05/01 01:02:15;;;;;;;7.45;3.30;;;;;;;23.86;41.38;99050.03;4495622;32;33731;-57
2021/05/01 01:04:42;;;;;;;4.72;3.12;;;;;;;23.86;41.36;99058.19;4495312;32;33313;-56
2021/05/01 01:07:09;;;;;;;8.82;3.85;;;;;;;23.86;41.32;99052.75;4495591;31;35143;-58
2021/05/01 01:09:38;;;;;;;8.30;3.40;;;;;;;23.86;41.35;99053.56;4494361;32;33869;-56
2021/05/01 01:12:06;;;;;;;9.55;3.70;;;;;;;23.88;41.15;99056.06;4495654;32;33201;-57
2021/05/01 01:14:33;;;;;;;8.63;3.12;;;;;;;23.87;41.43;99065.28;4481587;32;34664;-58
2021/05/01 01:17:00;;;;;;;8.48;3.42;;;;;;;23.86;41.44;99061.75;4495381;32;34676;-57
2021/05/01 01:19:28;;;;;;;7.93;3.65;;;;;;;23.86;41.48;99072.66;4495258;32;34864;-57
2021/05/01 01:21:56;;;;;;;6.03;3.45;;;;;;;23.86;41.57;99069.91;4495119;32;33723;-58
2021/05/01 01:24:25;;;;;;;7.75;3.58;;;;;;;23.86;41.64;99074.53;4495489;32;34046;-58
2021/05/01 01:26:52;;;;;;;6.97;3.67;;;;;;;23.85;41.73;99067.44;4495341;32;33772;-58
2021/05/01 01:29:19;;;;;;;8.02;3.33;;;;;;;23.86;41.87;99074.53;4495392;32;33972;-61
2021/05/01 01:31:46;;;;;;;11.10;3.25;;;;;;;23.86;41.87;99063.66;4493496;31;34451;-56
2021/05/01 01:34:13;;;;;;;11.05;3.28;;;;;;;23.85;41.95;99051.94;4484415;32;33265;-57
2021/05/01 01:36:41;;;;;;;6.95;3.35;;;;;;;23.86;41.84;99052.75;4484870;32;33900;-60
2021/05/01 01:39:08;;;;;;;6.45;2.97;;;;;;;23.85;41.77;99057.38;4484787;32;33945;-58
2021/05/01 01:41:35;;;;;;;6.87;3.10;;;;;;;23.84;41.72;99055.72;4484829;32;33776;-58
2021/05/01 01:44:04;;;;;;;10.20;3.20;;;;;;;23.84;41.68;99049.47;4484811;32;34401;-58
2021/05/01 01:46:33;;;;;;;10.00;3.40;;;;;;;23.84;41.67;99054.91;4484580;32;33815;-56
2021/05/01 01:49:00;;;;;;;8.60;3.00;;;;;;;23.85;41.64;99059.28;4483418;32;34685;-60
2021/05/01 01:51:27;;;;;;;7.93;3.20;;;;;;;23.85;41.54;99053.84;4483553;32;33718;-57
2021/05/01 01:53:54;;;;;;;8.25;3.50;;;;;;;23.84;41.55;99058.47;4484680;32;33391;-57
2021/05/01 01:56:21;;;;;;;6.53;3.30;;;;;;;23.84;41.58;99053.00;4484583;32;35065;-58
2021/05/01 01:58:49;;;;;;;7.55;3.53;;;;;;;23.83;41.54;99056.81;4484432;32;33993;-58
2021/05/01 02:01:16;;;;;;;6.82;3.33;;;;;;;23.83;41.54;99062.25;4484691;32;33622;-57
2021/05/01 02:03:43;;;;;;;9.10;4.15;;;;;;;23.84;41.51;99057.63;4484534;32;34254;-58
2021/05/01 02:06:10;;;;;;;7.82;3.12;;;;;;;23.83;41.50;99054.09;4484659;32;33856;-58
2021/05/01 02:08:38;;;;;;;8.00;3.17;;;;;;;23.83;41.52;99053.25;4484633;32;33973;-57
2021/05/01 02:11:10;;;;;;;5.70;3.20;;;;;;;23.83;41.54;99050.53;4484539;32;34230;-59
2021/05/01 02:13:37;;;;;;;6.22;3.45;;;;;;;23.82;41.55;99049.69;4484700;32;34199;-58
2021/05/01 02:16:05;;;;;;;5.55;2.78;;;;;;;23.83;41.49;99053.25;4484521;32;34388;-61
2021/05/01 02:18:32;;;;;;;10.07;4.05;;;;;;;23.82;41.63;99044.25;4484374;32;34526;-58
2021/05/01 02:20:59;;;;;;;7.47;3.17;;;;;;;23.82;41.63;99043.41;4484648;32;33502;-57
2021/05/01 02:23:27;;;;;;;7.22;3.10;;;;;;;23.82;41.65;99048.87;4484477;32;33326;-61
2021/05/01 02:25:54;;;;;;;8.43;2.83;;;;;;;23.82;41.73;99055.13;4484520;32;34616;-60
2021/05/01 02:28:38;;;;;;;7.60;3.20;;;;;;;23.83;41.66;99061.44;4484451;32;33889;-58
2021/05/01 02:31:14;;;;;;;7.65;3.20;;;;;;;23.83;41.55;99062.25;4484544;32;33682;-58
2021/05/01 02:33:41;;;;;;;8.05;3.50;;;;;;;23.83;41.67;99061.44;4484529;32;33209;-58
2021/05/01 02:36:09;;;;;;;7.57;3.20;;;;;;;23.82;41.58;99071.47;4484235;32;34811;-57
2021/05/01 02:38:36;;;;;;;6.47;2.97;;;;;;;23.82;41.60;99067.94;4484587;32;33936;-54
2021/05/01 02:41:04;;;;;;;7.87;3.00;;;;;;;23.82;41.60;99054.31;4484242;32;35045;-58
2021/05/01 02:43:31;;;;;;;8.23;3.12;;;;;;;23.82;41.40;99054.31;4483875;32;34305;-58
2021/05/01 02:46:02;;;;;;;5.47;2.80;;;;;;;23.81;41.57;99053.50;4483644;32;34695;-59
2021/05/01 02:48:30;;;;;;;9.07;3.58;;;;;;;23.82;41.57;99046.13;4484383;32;34793;-57
2021/05/01 02:50:58;;;;;;;7.22;3.33;;;;;;;23.81;41.61;99034.41;4484128;32;33459;-57
2021/05/01 02:53:25;;;;;;;6.62;2.90;;;;;;;23.81;41.72;99030.88;4484327;32;33265;-58
2021/05/01 02:55:52;;;;;;;6.62;2.92;;;;;;;23.81;41.71;99022.69;4484399;32;34579;-58
2021/05/01 02:58:19;;;;;;;7.50;3.55;;;;;;;23.82;41.70;99018.91;4484247;32;35094;-58
2021/05/01 03:00:46;;;;;;;8.30;3.37;;;;;;;23.80;41.68;99019.16;4484248;32;34963;-58
2021/05/01 03:03:14;;;;;;;6.37;3.55;;;;;;;23.81;41.74;99028.16;4484317;32;34246;-58
2021/05/01 03:05:41;;;;;;;7.30;2.97;;;;;;;23.81;42.09;99028.16;4484118;32;33438;-58
2021/05/01 03:08:08;;;;;;;6.55;3.28;;;;;;;23.80;41.96;99027.34;4484403;32;33854;-57
2021/05/01 03:10:35;;;;;;;6.07;3.00;;;;;;;23.80;41.74;99027.34;4480219;32;33755;-62
2021/05/01 03:13:02;;;;;;;6.97;3.20;;;;;;;23.80;41.59;99031.97;4473055;32;33301;-59
2021/05/01 03:15:29;;;;;;;9.35;3.40;;;;;;;23.80;41.69;99034.69;4469137;32;33575;-59
2021/05/01 03:17:57;;;;;;;6.20;3.20;;;;;;;23.79;41.66;99035.75;4484429;32;34743;-59
2021/05/01 03:20:24;;;;;;;7.75;3.17;;;;;;;23.79;41.73;99033.03;4483915;32;33529;-59
2021/05/01 03:22:51;;;;;;;8.52;3.10;;;;;;;23.79;41.88;99033.03;4484194;32;33363;-60
2021/05/01 03:25:19;;;;;;;6.80;2.75;;;;;;;23.79;41.61;99035.75;4484264;32;34527;-60
2021/05/01 03:27:46;;;;;;;7.00;3.00;;;;;;;23.79;41.55;99031.13;4482778;32;33832;-60
2021/05/01 03:30:15;;;;;;;6.12;2.80;;;;;;;23.77;41.66;99027.81;4468718;32;33811;-60
2021/05/01 03:32:43;;;;;;;6.00;2.90;;;;;;;23.78;41.84;99025.91;4468708;32;33813;-62
2021/05/01 03:35:10;;;;;;;6.78;3.00;;;;;;;23.79;41.75;99033.03;4468246;32;33676;-59
2021/05/01 03:37:37;;;;;;;6.30;2.87;;;;;;;23.77;41.62;99030.53;4468321;32;34697;-58
2021/05/01 03:40:05;;;;;;;6.15;2.97;;;;;;;23.77;41.60;99021.53;4468277;32;33635;-61
2021/05/01 03:42:33;;;;;;;5.82;2.47;;;;;;;23.77;41.54;99024.25;4468026;32;33290;-62
2021/05/01 03:45:00;;;;;;;8.18;2.92;;;;;;;23.78;41.47;99021.31;4468162;32;33760;-61
2021/05/01 03:47:27;;;;;;;6.60;3.30;;;;;;;23.77;41.61;99027.81;4468308;32;33972;-62
2021/05/01 03:49:55;;;;;;;8.52;2.90;;;;;;;23.78;41.62;99042.25;4473868;32;34728;-60
2021/05/01 03:52:22;;;;;;;7.70;3.33;;;;;;;23.77;41.97;99037.88;4479075;32;34405;-58
2021/05/01 03:54:49;;;;;;;9.15;2.85;;;;;;;23.78;41.89;99040.37;4478119;32;33785;-61
2021/05/01 03:57:17;;;;;;;8.30;2.83;;;;;;;23.77;41.62;99035.16;4467763;32;33815;-62
2021/05/01 03:59:44;;;;;;;7.28;3.20;;;;;;;23.76;41.57;99037.06;4475244;32;33579;-62
2021/05/01 04:02:11;;;;;;;5.03;2.55;;;;;;;23.76;41.62;99042.50;4483903;32;33246;-62
2021/05/01 04:04:38;;;;;;;7.60;2.70;;;;;;;23.77;41.76;99048.78;4483596;32;33844;-61
2021/05/01 04:07:05;;;;;;;8.13;3.08;;;;;;;23.77;41.68;99046.88;4483983;32;34478;-61
2021/05/01 04:09:33;;;;;;;6.47;2.72;;;;;;;23.77;41.61;99054.22;4483752;32;33719;-61
2021/05/01 04:12:01;;;;;;;7.25;2.97;;;;;;;23.77;41.57;99059.69;4475588;32;34059;-62
2021/05/01 04:14:28;;;;;;;10.73;3.12;;;;;;;23.76;41.62;99061.56;4467888;32;33793;-61
2021/05/01 04:16:55;;;;;;;5.68;2.67;;;;;;;23.77;41.62;99067.84;4468263;32;33618;-61
2021/05/01 04:19:22;;;;;;;6.95;2.60;;;;;;;23.78;41.66;99061.31;4467863;32;33688;-60
2021/05/01 04:21:50;;;;;;;7.37;3.28;;;;;;;23.77;41.65;99062.41;4467671;32;33328;-60
2021/05/01 04:24:17;;;;;;;6.12;2.97;;;;;;;23.77;41.84;99057.78;4467975;32;34359;-61
2021/05/01 04:26:44;;;;;;;7.75;2.75;;;;;;;23.77;41.87;99062.41;4467462;32;33989;-61
2021/05/01 04:29:11;;;;;;;6.30;3.08;;;;;;;23.77;41.73;99056.97;4469431;32;33548;-61
2021/05/01 04:31:38;;;;;;;6.12;3.10;;;;;;;23.76;41.68;99058.84;4474386;32;33494;-61
2021/05/01 04:34:06;;;;;;;6.43;3.03;;;;;;;23.77;41.84;99068.69;4483104;32;33805;-61
2021/05/01 04:36:33;;;;;;;8.85;2.80;;;;;;;23.76;41.74;99061.56;4470452;32;34872;-59
2021/05/01 04:39:00;;;;;;;9.73;2.90;;;;;;;23.75;41.74;99065.38;4467430;32;34488;-61
2021/05/01 04:41:27;;;;;;;5.93;2.45;;;;;;;23.77;41.74;99067.84;4467388;32;33274;-61
2021/05/01 04:43:54;;;;;;;8.50;3.17;;;;;;;23.77;41.71;99067.84;4467524;32;33766;-62
2021/05/01 04:46:21;;;;;;;8.27;2.83;;;;;;;23.77;41.91;99070.56;4467475;32;34097;-62
2021/05/01 04:48:50;;;;;;;5.05;2.85;;;;;;;23.77;41.80;99065.13;4478341;32;35040;-61
2021/05/01 04:51:20;;;;;;;6.28;2.80;;;;;;;23.77;41.81;99070.56;4468901;32;33374;-61
2021/05/01 04:53:47;;;;;;;;;;;;;;;23.74;41.75;99085.53;4483270;32;35233;-62
2021/05/01 04:56:14;;;;;;;5.78;2.70;;;;;;;23.86;41.42;99086.25;4482893;32;34039;-61
2021/05/01 04:58:41;;;;;;;8.52;2.87;;;;;;;23.78;41.51;99083.12;4483208;32;34987;-62
2021/05/01 05:01:08;;;;;;;6.57;2.90;;;;;;;23.76;41.60;99091.53;4482970;32;33383;-62
2021/05/01 05:03:37;;;;;;;4.43;2.50;;;;;;;23.74;41.60;99087.44;4482614;32;33792;-62
2021/05/01 05:06:04;;;;;;;5.37;2.67;;;;;;;23.75;41.57;99097.25;4482825;32;33728;-61
2021/05/01 05:08:31;;;;;;;6.00;2.80;;;;;;;23.73;41.58;99083.84;4484199;32;34398;-61
2021/05/01 05:10:58;;;;;;;5.97;2.83;;;;;;;23.74;41.58;99098.31;4485016;32;34513;-61
2021/05/01 05:13:26;;;;;;;9.60;2.97;;;;;;;23.75;41.59;99089.06;4485075;32;35917;-61
2021/05/01 05:15:53;;;;;;;4.20;2.37;;;;;;;23.75;41.57;99097.25;4484999;32;33974;-61
2021/05/01 05:18:20;;;;;;;9.07;3.22;;;;;;;23.76;41.49;99109.78;4484897;32;33514;-61
2021/05/01 05:20:47;;;;;;;6.43;2.40;;;;;;;23.75;41.45;99103.53;4483645;32;32018;-59
2021/05/01 05:23:15;;;;;;;6.28;2.50;;;;;;;23.74;41.45;99107.31;4484811;32;33808;-57
2021/05/01 05:25:42;;;;;;;4.03;2.12;;;;;;;23.75;41.43;99106.25;4470349;32;33833;-60
2021/05/01 05:28:09;;;;;;;8.65;2.92;;;;;;;23.75;41.39;99099.97;4469313;32;34275;-61
2021/05/01 05:30:36;;;;;;;5.57;2.30;;;;;;;23.74;41.41;99095.59;4469236;32;33313;-61
2021/05/01 05:33:04;;;;;;;5.90;2.60;;;;;;;23.74;41.41;99096.44;4469088;32;33984;-61
2021/05/01 05:35:31;;;;;;;4.62;2.42;;;;;;;23.74;41.37;99104.59;4469109;32;33832;-61
2021/05/01 05:37:58;;;;;;;6.60;2.67;;;;;;;23.76;41.35;99099.72;4469266;32;34688;-61
2021/05/01 05:40:25;;;;;;;5.60;2.83;;;;;;;23.75;41.50;99100.78;4468910;32;34327;-61
2021/05/01 05:42:52;;;;;;;6.85;2.83;;;;;;;23.75;41.39;99097.25;4469027;32;33945;-60
2021/05/01 05:45:24;;;;;;;5.82;2.20;;;;;;;23.75;41.40;99105.41;4469242;32;33952;-61
2021/05/01 05:47:52;;;;;;;8.35;2.65;;;;;;;23.75;41.46;99105.41;4468986;32;33703;-61
2021/05/01 05:50:19;;;;;;;7.45;2.78;;;;;;;23.75;41.55;99105.41;4469330;32;33329;-61
2021/05/01 05:52:54;;;;;;;4.80;2.40;;;;;;;23.76;41.70;99109.78;4469184;32;34604;-61
2021/05/01 05:55:21;;;;;;;6.93;2.70;;;;;;;23.76;41.62;99102.44;4469122;32;33640;-62
2021/05/01 05:57:57;;;;;;;5.32;2.58;;;;;;;23.76;41.46;99110.63;4469093;32;33653;-61
2021/05/01 06:00:25;;;;;;;6.35;2.65;;;;;;;23.76;41.43;99116.06;4468752;32;33384;-60
2021/05/01 06:02:58;;;;;;;8.95;2.55;;;;;;;23.75;41.58;99124.50;4469042;32;33877;-61
2021/05/01 06:05:32;;;;;;;5.75;2.53;;;;;;;23.76;41.68;99121.50;4468973;32;33839;-61
2021/05/01 06:08:00;;;;;;;5.37;2.42;;;;;;;23.74;41.64;99128.28;4477915;31;33708;-59
2021/05/01 06:10:27;;;;;;;4.00;2.35;;;;;;;23.75;41.69;99128.03;4482088;32;33281;-58
2021/05/01 06:12:55;;;;;;;8.05;3.05;;;;;;;23.76;41.65;99118.78;4463347;32;33785;-62
2021/05/01 06:15:22;;;;;;;6.75;3.20;;;;;;;23.77;41.76;99125.06;4469135;32;33712;-61
2021/05/01 06:17:51;;;;;;;5.10;3.00;;;;;;;23.75;41.70;99111.69;4481019;32;34688;-61
2021/05/01 06:20:19;;;;;;;8.98;2.60;;;;;;;23.74;41.75;99106.50;4481686;32;33742;-60
2021/05/01 06:22:50;;;;;;;5.82;2.62;;;;;;;23.75;41.67;99108.16;4483296;32;33932;-61
2021/05/01 06:25:17;;;;;;;5.32;2.75;;;;;;;23.75;41.65;99108.16;4474267;32;33837;-57
2021/05/01 06:27:44;;;;;;;8.20;2.60;;;;;;;23.75;41.70;99099.97;4495015;31;33713;-60
2021/05/01 06:30:12;;;;;;;8.23;2.95;;;;;;;23.79;41.56;99109.31;4494190;31;34187;-55
2021/05/01 06:32:45;;;;;;;13.02;3.00;;;;;;;23.77;41.61;99117.72;4484001;32;34566;-60
2021/05/01 06:35:13;;;;;;;5.35;2.40;;;;;;;23.80;41.49;99113.69;4483912;32;33872;-59
2021/05/01 06:37:40;;;;;;;8.52;2.87;;;;;;;23.80;41.52;99116.41;4484361;32;34576;-59
2021/05/01 06:40:16;;;;;;;4.78;2.25;;;;;;;23.80;41.54;99110.94;4482358;32;33260;-58
2021/05/01 06:42:49;;;;;;;7.87;2.92;;;;;;;23.80;41.61;99116.41;4477972;32;33622;-57
2021/05/01 06:45:16;;;;;;;8.43;2.72;;;;;;;23.80;41.65;99124.56;4492078;31;33942;-59
2021/05/01 06:47:54;;;;;;;5.57;2.67;;;;;;;23.81;41.71;99131.66;4498088;31;33620;-59
2021/05/01 06:50:22;;;;;;;6.80;2.50;;;;;;;23.82;41.54;99133.31;4484422;32;33929;-58
2021/05/01 06:52:49;;;;;;;9.45;3.25;;;;;;;23.81;41.63;99124.31;4484037;32;34795;-59
2021/05/01 06:55:18;;;;;;;9.02;2.80;;;;;;;23.82;41.67;99127.88;4483899;32;33921;-56
2021/05/01 06:57:50;;;;;;;8.15;2.70;;;;;;;23.81;41.58;99127.03;4480519;32;33721;-60
2021/05/01 07:00:21;;;;;;;6.45;2.25;;;;;;;23.84;41.61;99126.56;4473693;32;32972;-57
2021/05/01 07:02:50;;;;;;;8.77;3.05;;;;;;;23.83;41.57;99113.19;4468637;32;34332;-60
2021/05/01 07:05:19;;;;;;;6.10;2.83;;;;;;;23.81;41.69;99107.97;4482758;32;33911;-60
2021/05/01 07:07:55;;;;;;;6.28;2.40;;;;;;;23.83;41.59;99105.03;4483983;32;33731;-59
2021/05/01 07:10:23;;;;;;;5.55;2.37;;;;;;;23.82;41.67;99103.34;4482664;32;33319;-60
2021/05/01 07:13:05;;;;;;;5.05;2.35;;;;;;;23.82;41.67;99100.63;4483785;32;33516;-61
2021/05/01 07:15:32;;;;;;;8.63;2.72;;;;;;;23.82;41.79;99098.72;4480043;32;35546;-61
2021/05/01 07:18:15;;;;;;;7.70;2.50;;;;;;;23.82;41.73;99103.34;4467745;32;33956;-59
2021/05/01 07:20:44;;;;;;;5.60;2.42;;;;;;;23.83;41.79;99105.03;4482646;32;33490;-60
2021/05/01 07:23:15;;;;;;;5.93;2.40;;;;;;;23.81;41.81;99113.44;4483901;32;34746;-57
2021/05/01 07:25:42;;;;;;;5.12;2.55;;;;;;;23.82;41.80;99120.50;4483506;32;34899;-60
2021/05/01 07:28:12;;;;;;;5.45;2.33;;;;;;;23.82;41.81;99117.78;4483902;32;33769;-58
2021/05/01 07:30:46;;;;;;;6.65;2.47;;;;;;;23.82;41.82;99120.50;4481873;32;32995;-57
2021/05/01 07:33:13;;;;;;;6.60;2.42;;;;;;;23.83;41.82;99119.47;4483834;32;33578;-58
2021/05/01 07:35:40;;;;;;;4.90;2.62;;;;;;;23.83;41.73;99124.91;4483745;32;33913;-57
2021/05/01 07:38:11;;;;;;;6.72;2.10;;;;;;;23.83;41.73;99130.38;4481366;32;34687;-59
2021/05/01 07:40:38;;;;;;;4.50;2.40;;;;;;;23.83;41.73;99124.09;4477892;32;33005;-59
2021/05/01 07:43:09;;;;;;;5.32;2.33;;;;;;;23.86;41.58;99121.69;4495113;31;33818;-55
2021/05/01 07:45:36;;;;;;;6.35;2.45;;;;;;;23.87;41.59;99117.06;4498345;31;33860;-61
2021/05/01 07:48:04;;;;;;;10.88;2.85;;;;;;;23.89;41.71;99126.66;4483843;32;33422;-59
2021/05/01 07:50:31;;;;;;;13.80;3.10;;;;;;;23.87;41.80;99126.06;4482484;32;33146;-59
2021/05/01 07:52:58;;;;;;;9.82;3.45;;;;;;;23.87;41.71;99122.50;4483260;32;35821;-62
2021/05/01 07:55:26;;;;;;;10.05;3.22;;;;;;;23.88;41.64;99129.63;4482730;32;33869;-60
2021/05/01 07:57:53;;;;;;;7.95;2.97;;;;;;;23.88;41.61;99122.28;4483849;32;33717;-58
2021/05/01 08:00:20;;;;;;;9.25;2.92;;;;;;;23.88;41.61;99129.63;4483620;32;33403;-61
2021/05/01 08:02:48;;;;;;;15.00;3.83;;;;;;;23.87;41.58;99133.41;4483717;32;33829;-60
2021/05/01 08:05:17;;;;;;;14.95;3.20;;;;;;;23.88;41.57;99130.44;4483735;32;33914;-60
2021/05/01 08:07:45;;;;;;;9.00;2.93;;;;;;;23.87;41.53;99126.06;4482838;32;35333;-59
2021/05/01 08:10:12;;;;;;;9.52;3.55;;;;;;;23.87;41.50;99128.78;4483861;32;34032;-60
2021/05/01 08:12:48;;;;;;;11.57;3.20;;;;;;;23.88;41.51;99143.25;4483696;32;33501;-58
2021/05/01 08:15:15;;;;;;;8.52;2.67;;;;;;;23.88;41.47;99133.19;4483474;32;33789;-60
2021/05/01 08:17:42;;;;;;;9.93;3.30;;;;;;;23.87;41.47;99125.22;4483721;32;33423;-60
2021/05/01 08:20:10;;;;;;;10.65;3.15;;;;;;;23.86;41.43;99132.59;4483458;32;33093;-60
2021/05/01 08:22:38;;;;;;;8.20;3.03;;;;;;;23.87;41.39;99138.84;4483720;32;34516;-58
2021/05/01 08:25:06;;;;;;;5.70;2.83;;;;;;;23.86;41.33;99131.75;4483416;32;34054;-60
2021/05/01 08:27:33;;;;;;;11.63;2.90;;;;;;;23.85;41.31;99130.94;4483446;32;33826;-59
2021/05/01 08:30:01;;;;;;;8.65;2.83;;;;;;;23.86;41.21;99135.31;4483209;32;33319;-58
2021/05/01 08:32:28;;;;;;;7.80;2.97;;;;;;;23.86;41.17;99132.59;4483458;32;33833;-60
2021/05/01 08:34:56;;;;;;;10.63;2.80;;;;;;;23.85;41.11;99139.09;4488602;31;33819;-62
2021/05/01 08:37:23;;;;;;;13.52;3.12;;;;;;;23.86;41.13;99142.66;4479148;31;33714;-60
2021/05/01 08:39:51;;;;;;;8.35;2.90;;;;;;;23.85;41.15;99130.13;4479827;32;34274;-59
2021/05/01 08:42:18;;;;;;;7.40;2.55;;;;;;;23.86;41.15;99131.75;4481772;32;33519;-59
2021/05/01 08:44:45;;;;;;;10.40;2.92;;;;;;;23.88;41.16;99137.81;4484836;32;33884;-60
2021/05/01 08:47:12;;;;;;;7.35;2.97;;;;;;;23.89;41.18;99136.72;4484952;32;33868;-58
2021/05/01 08:49:40;;;;;;;7.87;2.75;;;;;;;23.89;41.23;99128.56;4484914;32;33149;-59
2021/05/01 08:52:09;;;;;;;10.43;2.72;;;;;;;23.91;41.26;99129.12;4484449;32;33453;-58
2021/05/01 08:54:36;;;;;;;13.05;2.83;;;;;;;23.93;41.24;99135.16;4485020;32;33923;-60
2021/05/01 08:57:24;;;;;;;7.70;2.83;;;;;;;23.93;41.34;99144.16;4484838;32;34733;-59
2021/05/01 08:59:52;;;;;;;9.65;3.08;;;;;;;23.95;41.35;99140.34;4483525;32;32951;-60
2021/05/01 09:02:19;;;;;;;7.05;2.72;;;;;;;23.92;41.41;99141.66;4485407;32;34621;-59
2021/05/01 09:04:48;;;;;;;9.15;2.70;;;;;;;23.93;41.45;99136.00;4483508;32;33937;-60
2021/05/01 09:07:17;;;;;;;7.35;2.80;;;;;;;23.94;41.52;99136.81;4484969;32;33718;-60
2021/05/01 09:09:52;;;;;;;7.20;3.10;;;;;;;23.93;41.55;99130.53;4484922;32;33275;-60
2021/05/01 09:12:41;;;;;;;6.07;2.53;;;;;;;23.97;41.53;99138.19;4484792;32;33354;-59
2021/05/01 09:15:11;;;;;;;5.20;2.62;;;;;;;23.99;41.46;99133.34;4484689;32;34868;-60
2021/05/01 09:17:38;;;;;;;;;;;;;;;23.98;41.51;99129.81;4484897;32;34633;-60
2021/05/01 09:20:10;;;;;;;5.45;2.70;;;;;;;24.07;41.34;99122.06;4483497;32;33401;-59
2021/05/01 09:23:07;;;;;;;9.70;2.85;;;;;;;24.00;41.51;99122.19;4484685;32;34869;-60
2021/05/01 09:25:57;;;;;;;7.03;2.95;;;;;;;24.00;41.53;99124.09;4484557;32;34800;-60
2021/05/01 09:28:25;;;;;;;6.40;2.53;;;;;;;24.01;41.52;99129.28;4483617;32;33462;-60
2021/05/01 09:31:13;;;;;;;7.40;2.50;;;;;;;23.99;41.58;99133.34;4484460;32;32939;-60
2021/05/01 09:33:41;;;;;;;6.93;2.65;;;;;;;23.99;41.64;99134.19;4484367;32;33868;-59
2021/05/01 09:36:12;;;;;;;9.40;2.80;;;;;;;23.98;41.68;99118.09;4484240;32;34814;-60
2021/05/01 09:38:41;;;;;;;6.87;2.60;;;;;;;23.98;41.66;99108.00;4484105;32;33839;-54
2021/05/01 09:41:19;;;;;;;7.05;2.72;;;;;;;24.01;41.64;99112.13;4484559;32;33297;-59
2021/05/01 09:44:02;;;;;;;5.95;2.90;;;;;;;24.00;41.67;99113.19;4484500;32;33652;-60
2021/05/01 09:46:31;;;;;;;4.68;2.30;;;;;;;24.03;41.64;99104.53;4484653;32;33779;-59
2021/05/01 09:49:08;;;;;;;6.43;2.78;;;;;;;24.01;41.66;99112.13;4484484;32;33710;-60
2021/05/01 09:51:57;;;;;;;5.87;2.92;;;;;;;24.03;41.62;99108.09;4481388;31;33359;-56
2021/05/01 09:54:34;;;;;;;8.27;2.87;;;;;;;24.04;41.61;99101.56;4479721;32;33772;-59
2021/05/01 09:57:14;;;;;;;5.30;2.20;;;;;;;24.04;41.62;99109.72;4491849;31;34141;-59
2021/05/01 09:59:48;;;;;;;8.65;2.60;;;;;;;24.03;41.60;99097.19;4489446;31;33790;-60
2021/05/01 10:02:17;;;;;;;5.65;2.70;;;;;;;24.00;41.61;99089.50;4500415;31;33245;-60
2021/05/01 10:05:04;;;;;;;10.68;2.85;;;;;;;24.00;41.64;99092.22;4500152;31;33773;-58
2021/05/01 10:07:35;;;;;;;6.55;2.67;;;;;;;24.02;41.55;99087.37;4499382;31;33566;-59
2021/05/01 10:10:03;;;;;;;10.43;2.80;;;;;;;24.00;41.63;99088.66;4471853;32;34755;-60
2021/05/01 10:12:38;;;;;;;8.10;2.75;;;;;;;24.00;41.65;99088.66;4468991;32;33345;-60
2021/05/01 10:15:15;;;;;;;7.65;2.70;;;;;;;24.01;41.58;99080.25;4468732;32;33868;-58
2021/05/01 10:17:46;;;;;;;8.13;3.08;;;;;;;23.98;41.50;99058.97;4468899;32;33965;-60
2021/05/01 10:20:15;;;;;;;9.30;2.95;;;;;;;23.97;41.48;99062.75;4469647;32;34456;-59
2021/05/01 10:22:43;;;;;;;6.72;2.92;;;;;;;23.98;41.40;99063.59;4484871;32;33087;-59
2021/05/01 10:25:32;;;;;;;6.20;2.80;;;;;;;23.98;41.40;99049.97;4490512;31;33774;-59
2021/05/01 10:28:09;;;;;;;5.97;2.80;;;;;;;23.99;41.28;99052.44;4499100;31;34550;-60
2021/05/01 10:30:42;;;;;;;8.50;2.80;;;;;;;23.99;41.29;99052.44;4499694;31;35086;-60
2021/05/01 10:33:23;;;;;;;13.05;3.25;;;;;;;23.99;41.36;99054.31;4499190;31;34455;-59
2021/05/01 10:35:52;;;;;;;9.55;2.80;;;;;;;23.99;41.37;99044.25;4499752;31;34690;-58
2021/05/01 10:38:21;;;;;;;8.00;2.65;;;;;;;23.99;41.39;99044.25;4485066;31;34912;-56
2021/05/01 10:40:52;;;;;;;6.68;2.83;;;;;;;24.01;41.41;99054.88;4485028;31;34375;-60
2021/05/01 10:43:33;;;;;;;7.72;3.20;;;;;;;24.02;41.41;99060.12;4499422;31;33314;-59
2021/05/01 10:46:09;;;;;;;7.25;2.60;;;;;;;24.01;41.41;99044.81;4491076;31;34996;-60
2021/05/01 10:48:48;;;;;;;8.70;2.67;;;;;;;24.03;41.39;99044.59;4483709;32;33955;-57
2021/05/01 10:51:26;;;;;;;6.62;2.60;;;;;;;24.02;41.47;99038.31;4484539;32;34510;-60
2021/05/01 10:54:21;;;;;;;7.50;2.60;;;;;;;24.01;41.44;99036.62;4484073;32;33419;-57
2021/05/01 10:56:50;;;;;;;13.23;3.12;;;;;;;24.04;41.38;99027.16;4484368;32;34619;-57
2021/05/01 10:59:21;;;;;;;9.68;2.72;;;;;;;23.99;41.41;99033.34;4484155;32;33565;-59
2021/05/01 11:01:52;;;;;;;9.15;2.55;;;;;;;23.99;41.43;99030.63;4484397;32;33711;-58
2021/05/01 11:04:25;;;;;;;10.32;2.92;;;;;;;23.99;41.41;99022.44;4484127;32;33242;-59
2021/05/01 11:07:03;;;;;;;10.82;2.60;;;;;;;23.99;41.35;99025.19;4483150;32;33727;-60
2021/05/01 11:09:41;;;;;;;7.87;2.53;;;;;;;24.00;41.32;99026.81;4470783;32;34597;-59
2021/05/01 11:12:10;;;;;;;7.90;2.83;;;;;;;24.00;41.29;99029.53;4484106;32;33687;-59
2021/05/01 11:14:54;;;;;;;6.05;2.47;;;;;;;23.98;41.26;99017.25;4483459;32;34213;-59
2021/05/01 11:17:34;;;;;;;6.68;2.42;;;;;;;24.00;41.20;99028.72;4488530;31;33544;-60
2021/05/01 11:20:10;;;;;;;5.72;2.17;;;;;;;23.99;41.19;99024.34;4491689;31;33573;-61
2021/05/01 11:22:38;;;;;;;7.45;2.60;;;;;;;23.99;41.17;99019.72;4492741;31;34450;-61
2021/05/01 11:25:10;;;;;;;10.80;3.00;;;;;;;23.96;41.14;99012.03;4484701;31;34353;-60
2021/05/01 11:27:38;;;;;;;8.25;2.30;;;;;;;23.97;41.12;99021.03;4484051;31;33903;-60
2021/05/01 11:30:06;;;;;;;5.75;2.50;;;;;;;23.97;41.07;99012.88;4484028;31;33624;-60
2021/05/01 11:32:34;;;;;;;6.90;2.50;;;;;;;23.96;41.04;99014.75;4484274;32;33413;-60
2021/05/01 11:35:12;;;;;;;5.95;2.47;;;;;;;23.97;41.01;99004.69;4470783;31;32964;-61
2021/05/01 11:37:53;;;;;;;6.15;2.50;;;;;;;23.96;40.99;99001.13;4499651;31;34482;-54
2021/05/01 11:40:22;;;;;;;7.85;2.47;;;;;;;23.97;40.93;99000.09;4499433;31;34636;-60
2021/05/01 11:42:50;;;;;;;7.00;2.42;;;;;;;23.96;40.99;99000.31;4499840;31;33646;-60
2021/05/01 11:45:20;;;;;;;8.93;2.60;;;;;;;23.95;40.95;98998.69;4494614;31;34688;-60